sensor_id;sensor_type;location;lat;lon;timestamp;temperature;humidity
8778;DHT22;4425;50.872;4.712;2023-01-30T00:01:46;5.00;99.90
8778;DHT22;4425;50.872;4.712;2023-01-30T00:04:13;5.00;99.90
8778;DHT22;4425;50.872;4.712;2023-01-30T00:06:41;5.10;99.90
8778;DHT22;4425;50.872;4.712;2023-01-30T00:09:11;5.00;99.90
8778;DHT22;4425;50.872;4.712;2023-01-30T00:11:40;5.10;99.90
8778;DHT22;4425;50.872;4.712;2023-01-30T00:14:07;5.10;99.90
8778;DHT22;4425;50.872;4.712;2023-01-30T00:16:34;5.10;99.90
8778;DHT22;4425;50.872;4.712;2023-01-30T00:19:01;5.10;99.90
8778;DHT22;4425;50.872;4.712;2023-01-30T00:21:29;5.20;99.90
8778;DHT22;4425;50.872;4.712;2023-01-30T00:23:56;5.10;99.90
8778;DHT22;4425;50.872;4.712;2023-01-30T00:26:28;5.10;99.90
8778;DHT22;4425;50.872;4.712;2023-01-30T00:29:25;5.20;99.90
8778;DHT22;4425;50.872;4.712;2023-01-30T00:31:56;5.20;99.90
8778;DHT22;4425;50.872;4.712;2023-01-30T00:34:29;5.20;99.90
8778;DHT22;4425;50.872;4.712;2023-01-30T00:36:56;5.20;99.90
8778;DHT22;4425;50.872;4.712;2023-01-30T00:39:23;5.20;99.90
8778;DHT22;4425;50.872;4.712;2023-01-30T00:41:50;5.30;99.90
8778;DHT22;4425;50.872;4.712;2023-01-30T00:44:37;5.30;99.90
8778;DHT22;4425;50.872;4.712;2023-01-30T00:47:22;5.30;99.90
8778;DHT22;4425;50.872;4.712;2023-01-30T00:49:50;5.40;99.90
8778;DHT22;4425;50.872;4.712;2023-01-30T00:52:17;5.40;99.90
8778;DHT22;4425;50.872;4.712;2023-01-30T00:54:44;5.50;99.90
8778;DHT22;4425;50.872;4.712;2023-01-30T00:57:13;5.50;99.90
8778;DHT22;4425;50.872;4.712;2023-01-30T00:59:43;5.60;99.90
8778;DHT22;4425;50.872;4.712;2023-01-30T01:02:11;5.60;99.90
8778;DHT22;4425;50.872;4.712;2023-01-30T01:04:41;5.70;99.90
8778;DHT22;4425;50.872;4.712;2023-01-30T01:07:10;5.60;99.90
8778;DHT22;4425;50.872;4.712;2023-01-30T01:09:38;5.60;99.90
8778;DHT22;4425;50.872;4.712;2023-01-30T01:12:06;5.60;99.90
8778;DHT22;4425;50.872;4.712;2023-01-30T01:14:33;5.60;99.90
8778;DHT22;4425;50.872;4.712;2023-01-30T01:17:01;5.70;99.90
8778;DHT22;4425;50.872;4.712;2023-01-30T01:19:30;5.70;99.90
8778;DHT22;4425;50.872;4.712;2023-01-30T01:21:57;5.70;99.90
8778;DHT22;4425;50.872;4.712;2023-01-30T01:24:23;5.80;99.90
8778;DHT22;4425;50.872;4.712;2023-01-30T01:26:52;5.80;99.90
8778;DHT22;4425;50.872;4.712;2023-01-30T01:29:19;5.80;99.90
8778;DHT22;4425;50.872;4.712;2023-01-30T01:31:46;5.90;99.90
8778;DHT22;4425;50.872;4.712;2023-01-30T01:34:15;5.90;99.90
8778;DHT22;4425;50.872;4.712;2023-01-30T01:36:42;6.00;99.90
8778;DHT22;4425;50.872;4.712;2023-01-30T01:39:09;6.00;99.90
8778;DHT22;4425;50.872;4.712;2023-01-30T01:41:37;6.00;99.90
8778;DHT22;4425;50.872;4.712;2023-01-30T01:44:05;6.10;99.90
8778;DHT22;4425;50.872;4.712;2023-01-30T01:46:36;6.10;99.90
8778;DHT22;4425;50.872;4.712;2023-01-30T01:49:11;6.10;99.90
8778;DHT22;4425;50.872;4.712;2023-01-30T01:51:44;6.20;99.90
8778;DHT22;4425;50.872;4.712;2023-01-30T01:54:17;6.20;99.90
8778;DHT22;4425;50.872;4.712;2023-01-30T01:56:46;6.20;99.90
8778;DHT22;4425;50.872;4.712;2023-01-30T01:59:23;6.20;99.90
8778;DHT22;4425;50.872;4.712;2023-01-30T02:01:53;6.30;99.90
8778;DHT22;4425;50.872;4.712;2023-01-30T02:04:21;6.20;99.90
8778;DHT22;4425;50.872;4.712;2023-01-30T02:07:04;6.30;99.90
8778;DHT22;4425;50.872;4.712;2023-01-30T02:09:31;6.30;99.90
8778;DHT22;4425;50.872;4.712;2023-01-30T02:12:00;6.30;99.90
8778;DHT22;4425;50.872;4.712;2023-01-30T02:14:29;6.30;99.90
8778;DHT22;4425;50.872;4.712;2023-01-30T02:16:57;6.30;99.90
8778;DHT22;4425;50.872;4.712;2023-01-30T02:19:30;6.30;99.90
8778;DHT22;4425;50.872;4.712;2023-01-30T02:22:34;6.30;99.90
8778;DHT22;4425;50.872;4.712;2023-01-30T02:28:46;6.30;99.90
8778;DHT22;4425;50.872;4.712;2023-01-30T02:31:31;6.30;99.90
8778;DHT22;4425;50.872;4.712;2023-01-30T02:34:11;6.30;99.90
8778;DHT22;4425;50.872;4.712;2023-01-30T02:36:50;6.30;99.90
8778;DHT22;4425;50.872;4.712;2023-01-30T02:39:24;6.30;99.90
8778;DHT22;4425;50.872;4.712;2023-01-30T02:41:58;6.40;99.90
8778;DHT22;4425;50.872;4.712;2023-01-30T02:44:29;6.40;99.90
8778;DHT22;4425;50.872;4.712;2023-01-30T02:47:04;6.40;99.90
8778;DHT22;4425;50.872;4.712;2023-01-30T02:49:36;6.30;99.90
8778;DHT22;4425;50.872;4.712;2023-01-30T02:52:05;6.40;99.90
8778;DHT22;4425;50.872;4.712;2023-01-30T02:54:34;6.40;99.90
8778;DHT22;4425;50.872;4.712;2023-01-30T02:57:02;6.40;99.90
8778;DHT22;4425;50.872;4.712;2023-01-30T02:59:32;6.50;99.90
8778;DHT22;4425;50.872;4.712;2023-01-30T03:02:32;6.50;99.90
8778;DHT22;4425;50.872;4.712;2023-01-30T03:05:19;6.50;99.90
8778;DHT22;4425;50.872;4.712;2023-01-30T03:07:53;6.50;99.90
8778;DHT22;4425;50.872;4.712;2023-01-30T03:10:28;6.50;99.90
8778;DHT22;4425;50.872;4.712;2023-01-30T03:13:02;6.50;99.90
8778;DHT22;4425;50.872;4.712;2023-01-30T03:15:34;6.50;99.90
8778;DHT22;4425;50.872;4.712;2023-01-30T03:18:04;6.50;99.90
8778;DHT22;4425;50.872;4.712;2023-01-30T03:20:35;6.50;99.90
8778;DHT22;4425;50.872;4.712;2023-01-30T03:23:02;6.50;99.90
8778;DHT22;4425;50.872;4.712;2023-01-30T03:25:30;6.60;99.90
8778;DHT22;4425;50.872;4.712;2023-01-30T03:27:58;6.70;99.90
8778;DHT22;4425;50.872;4.712;2023-01-30T03:30:27;6.60;99.90
8778;DHT22;4425;50.872;4.712;2023-01-30T03:32:54;6.60;99.90
8778;DHT22;4425;50.872;4.712;2023-01-30T03:35:24;6.60;99.90
8778;DHT22;4425;50.872;4.712;2023-01-30T03:37:51;6.70;99.90
8778;DHT22;4425;50.872;4.712;2023-01-30T03:40:18;6.70;99.90
8778;DHT22;4425;50.872;4.712;2023-01-30T03:42:46;6.70;99.90
8778;DHT22;4425;50.872;4.712;2023-01-30T03:45:13;6.70;99.90
8778;DHT22;4425;50.872;4.712;2023-01-30T03:47:40;6.80;99.90
8778;DHT22;4425;50.872;4.712;2023-01-30T03:50:09;6.70;99.90
8778;DHT22;4425;50.872;4.712;2023-01-30T03:52:38;6.80;99.90
8778;DHT22;4425;50.872;4.712;2023-01-30T03:55:06;6.90;99.90
8778;DHT22;4425;50.872;4.712;2023-01-30T03:57:34;6.90;99.90
8778;DHT22;4425;50.872;4.712;2023-01-30T04:00:01;6.90;99.90
8778;DHT22;4425;50.872;4.712;2023-01-30T04:02:29;6.90;99.90
8778;DHT22;4425;50.872;4.712;2023-01-30T04:04:57;7.00;99.90
8778;DHT22;4425;50.872;4.712;2023-01-30T04:07:24;7.00;99.90
8778;DHT22;4425;50.872;4.712;2023-01-30T04:09:52;6.90;99.90
8778;DHT22;4425;50.872;4.712;2023-01-30T04:12:19;7.00;99.90
8778;DHT22;4425;50.872;4.712;2023-01-30T04:14:47;7.00;99.90
8778;DHT22;4425;50.872;4.712;2023-01-30T04:17:14;6.90;99.90
8778;DHT22;4425;50.872;4.712;2023-01-30T04:19:41;6.90;99.90
8778;DHT22;4425;50.872;4.712;2023-01-30T04:22:08;6.90;99.90
8778;DHT22;4425;50.872;4.712;2023-01-30T04:24:35;6.90;99.90
8778;DHT22;4425;50.872;4.712;2023-01-30T04:27:04;6.90;99.90
8778;DHT22;4425;50.872;4.712;2023-01-30T04:29:33;6.80;99.90
8778;DHT22;4425;50.872;4.712;2023-01-30T04:32:03;6.90;99.90
8778;DHT22;4425;50.872;4.712;2023-01-30T04:34:30;6.80;99.90
8778;DHT22;4425;50.872;4.712;2023-01-30T04:36:58;7.00;99.90
8778;DHT22;4425;50.872;4.712;2023-01-30T04:39:25;6.80;99.90
8778;DHT22;4425;50.872;4.712;2023-01-30T04:41:53;6.80;99.90
8778;DHT22;4425;50.872;4.712;2023-01-30T04:44:21;6.70;99.90
8778;DHT22;4425;50.872;4.712;2023-01-30T04:46:49;6.80;99.90
8778;DHT22;4425;50.872;4.712;2023-01-30T04:49:16;6.80;99.90
8778;DHT22;4425;50.872;4.712;2023-01-30T04:51:43;6.80;99.90
8778;DHT22;4425;50.872;4.712;2023-01-30T04:54:10;6.80;99.90
8778;DHT22;4425;50.872;4.712;2023-01-30T04:56:38;6.80;99.90
8778;DHT22;4425;50.872;4.712;2023-01-30T04:59:05;6.80;99.90
8778;DHT22;4425;50.872;4.712;2023-01-30T05:01:35;6.80;99.90
8778;DHT22;4425;50.872;4.712;2023-01-30T05:04:04;6.80;99.90
8778;DHT22;4425;50.872;4.712;2023-01-30T05:06:32;6.80;99.90
8778;DHT22;4425;50.872;4.712;2023-01-30T05:09:00;6.70;99.90
8778;DHT22;4425;50.872;4.712;2023-01-30T05:11:28;6.80;99.90
8778;DHT22;4425;50.872;4.712;2023-01-30T05:13:55;6.80;99.90
8778;DHT22;4425;50.872;4.712;2023-01-30T05:16:24;6.80;99.90
8778;DHT22;4425;50.872;4.712;2023-01-30T05:18:53;6.80;99.90
8778;DHT22;4425;50.872;4.712;2023-01-30T05:21:21;6.80;99.90
8778;DHT22;4425;50.872;4.712;2023-01-30T05:23:50;6.80;99.90
8778;DHT22;4425;50.872;4.712;2023-01-30T05:26:18;6.80;99.90
8778;DHT22;4425;50.872;4.712;2023-01-30T05:28:50;6.80;99.90
8778;DHT22;4425;50.872;4.712;2023-01-30T05:31:17;6.80;99.90
8778;DHT22;4425;50.872;4.712;2023-01-30T05:33:46;6.90;99.90
8778;DHT22;4425;50.872;4.712;2023-01-30T05:36:20;6.90;99.90
8778;DHT22;4425;50.872;4.712;2023-01-30T05:38:47;6.90;99.90
8778;DHT22;4425;50.872;4.712;2023-01-30T05:41:15;6.90;99.90
8778;DHT22;4425;50.872;4.712;2023-01-30T05:43:48;7.00;99.90
8778;DHT22;4425;50.872;4.712;2023-01-30T05:46:16;6.90;99.90
8778;DHT22;4425;50.872;4.712;2023-01-30T05:48:43;7.00;99.90
8778;DHT22;4425;50.872;4.712;2023-01-30T05:51:19;7.20;99.90
8778;DHT22;4425;50.872;4.712;2023-01-30T05:53:47;7.10;99.90
8778;DHT22;4425;50.872;4.712;2023-01-30T05:56:14;7.00;99.90
8778;DHT22;4425;50.872;4.712;2023-01-30T05:58:42;7.00;99.90
8778;DHT22;4425;50.872;4.712;2023-01-30T06:01:11;7.10;99.90
8778;DHT22;4425;50.872;4.712;2023-01-30T06:03:38;7.10;99.90
8778;DHT22;4425;50.872;4.712;2023-01-30T06:06:06;7.10;99.90
8778;DHT22;4425;50.872;4.712;2023-01-30T06:08:34;7.10;99.90
8778;DHT22;4425;50.872;4.712;2023-01-30T06:11:06;7.10;99.90
8778;DHT22;4425;50.872;4.712;2023-01-30T06:13:35;7.10;99.90
8778;DHT22;4425;50.872;4.712;2023-01-30T06:16:03;7.10;99.90
8778;DHT22;4425;50.872;4.712;2023-01-30T06:18:32;7.10;99.90
8778;DHT22;4425;50.872;4.712;2023-01-30T06:21:01;7.10;99.90
8778;DHT22;4425;50.872;4.712;2023-01-30T06:23:28;7.10;99.90
8778;DHT22;4425;50.872;4.712;2023-01-30T06:25:59;7.10;99.90
8778;DHT22;4425;50.872;4.712;2023-01-30T06:28:27;7.00;99.90
8778;DHT22;4425;50.872;4.712;2023-01-30T06:30:54;7.10;99.90
8778;DHT22;4425;50.872;4.712;2023-01-30T06:33:21;7.20;99.90
8778;DHT22;4425;50.872;4.712;2023-01-30T06:35:50;7.20;99.90
8778;DHT22;4425;50.872;4.712;2023-01-30T06:38:18;7.20;99.90
8778;DHT22;4425;50.872;4.712;2023-01-30T06:40:46;7.20;99.90
8778;DHT22;4425;50.872;4.712;2023-01-30T06:43:15;7.30;99.90
8778;DHT22;4425;50.872;4.712;2023-01-30T06:45:45;7.30;99.90
8778;DHT22;4425;50.872;4.712;2023-01-30T06:48:12;7.30;99.90
8778;DHT22;4425;50.872;4.712;2023-01-30T06:50:40;7.30;99.90
8778;DHT22;4425;50.872;4.712;2023-01-30T06:53:07;7.40;99.90
8778;DHT22;4425;50.872;4.712;2023-01-30T06:55:35;7.30;99.90
8778;DHT22;4425;50.872;4.712;2023-01-30T06:58:04;7.40;99.90
8778;DHT22;4425;50.872;4.712;2023-01-30T07:00:33;7.30;99.90
8778;DHT22;4425;50.872;4.712;2023-01-30T07:03:01;7.30;99.90
8778;DHT22;4425;50.872;4.712;2023-01-30T07:05:28;7.20;99.90
8778;DHT22;4425;50.872;4.712;2023-01-30T07:07:55;7.20;99.90
8778;DHT22;4425;50.872;4.712;2023-01-30T07:10:24;7.40;99.90
8778;DHT22;4425;50.872;4.712;2023-01-30T07:12:51;7.20;99.90
8778;DHT22;4425;50.872;4.712;2023-01-30T07:15:20;7.20;99.90
8778;DHT22;4425;50.872;4.712;2023-01-30T07:17:50;7.30;99.90
8778;DHT22;4425;50.872;4.712;2023-01-30T07:20:17;7.30;99.90
8778;DHT22;4425;50.872;4.712;2023-01-30T07:22:48;7.20;99.90
8778;DHT22;4425;50.872;4.712;2023-01-30T07:25:16;7.20;99.90
8778;DHT22;4425;50.872;4.712;2023-01-30T07:27:49;7.10;99.90
8778;DHT22;4425;50.872;4.712;2023-01-30T07:30:16;7.10;99.90
8778;DHT22;4425;50.872;4.712;2023-01-30T07:32:43;7.10;99.90
8778;DHT22;4425;50.872;4.712;2023-01-30T07:35:12;7.10;99.90
8778;DHT22;4425;50.872;4.712;2023-01-30T07:37:39;7.20;99.90
8778;DHT22;4425;50.872;4.712;2023-01-30T07:40:07;7.30;99.90
8778;DHT22;4425;50.872;4.712;2023-01-30T07:42:35;7.30;99.90
8778;DHT22;4425;50.872;4.712;2023-01-30T07:45:02;7.20;99.90
8778;DHT22;4425;50.872;4.712;2023-01-30T07:47:30;7.20;99.90
8778;DHT22;4425;50.872;4.712;2023-01-30T07:49:58;7.30;99.90
8778;DHT22;4425;50.872;4.712;2023-01-30T07:52:26;7.20;99.90
8778;DHT22;4425;50.872;4.712;2023-01-30T07:54:53;7.20;99.90
8778;DHT22;4425;50.872;4.712;2023-01-30T07:57:20;7.20;99.90
8778;DHT22;4425;50.872;4.712;2023-01-30T07:59:47;7.30;99.90
8778;DHT22;4425;50.872;4.712;2023-01-30T08:02:14;7.00;99.90
8778;DHT22;4425;50.872;4.712;2023-01-30T08:04:43;7.20;99.90
8778;DHT22;4425;50.872;4.712;2023-01-30T08:07:11;7.30;99.90
8778;DHT22;4425;50.872;4.712;2023-01-30T08:09:40;7.30;99.90
8778;DHT22;4425;50.872;4.712;2023-01-30T08:12:07;7.30;99.90
8778;DHT22;4425;50.872;4.712;2023-01-30T08:14:34;7.40;99.90
8778;DHT22;4425;50.872;4.712;2023-01-30T08:17:01;7.40;99.90
8778;DHT22;4425;50.872;4.712;2023-01-30T08:19:29;7.40;99.90
8778;DHT22;4425;50.872;4.712;2023-01-30T08:21:58;7.40;99.90
8778;DHT22;4425;50.872;4.712;2023-01-30T08:24:25;7.50;99.90
8778;DHT22;4425;50.872;4.712;2023-01-30T08:26:53;7.60;99.90
8778;DHT22;4425;50.872;4.712;2023-01-30T08:29:21;7.60;99.90
8778;DHT22;4425;50.872;4.712;2023-01-30T08:31:48;7.70;99.90
8778;DHT22;4425;50.872;4.712;2023-01-30T08:34:15;7.80;99.90
8778;DHT22;4425;50.872;4.712;2023-01-30T08:36:42;7.80;99.90
8778;DHT22;4425;50.872;4.712;2023-01-30T08:39:15;7.80;99.90
8778;DHT22;4425;50.872;4.712;2023-01-30T08:41:42;7.90;99.90
8778;DHT22;4425;50.872;4.712;2023-01-30T08:44:11;7.80;99.90
8778;DHT22;4425;50.872;4.712;2023-01-30T08:46:40;7.70;99.90
8778;DHT22;4425;50.872;4.712;2023-01-30T08:49:07;7.70;99.90
8778;DHT22;4425;50.872;4.712;2023-01-30T08:51:34;7.70;99.90
8778;DHT22;4425;50.872;4.712;2023-01-30T08:54:01;7.60;99.90
8778;DHT22;4425;50.872;4.712;2023-01-30T08:56:31;7.60;99.90
8778;DHT22;4425;50.872;4.712;2023-01-30T08:58:59;7.60;99.90
8778;DHT22;4425;50.872;4.712;2023-01-30T09:01:27;7.60;99.90
8778;DHT22;4425;50.872;4.712;2023-01-30T09:03:54;7.60;99.90
8778;DHT22;4425;50.872;4.712;2023-01-30T09:06:22;7.60;99.90
8778;DHT22;4425;50.872;4.712;2023-01-30T09:08:49;7.60;99.90
8778;DHT22;4425;50.872;4.712;2023-01-30T09:11:17;7.70;99.90
8778;DHT22;4425;50.872;4.712;2023-01-30T09:13:43;7.70;99.90
8778;DHT22;4425;50.872;4.712;2023-01-30T09:16:11;7.70;99.90
8778;DHT22;4425;50.872;4.712;2023-01-30T09:18:43;7.70;99.90
8778;DHT22;4425;50.872;4.712;2023-01-30T09:21:11;7.70;99.90
8778;DHT22;4425;50.872;4.712;2023-01-30T09:23:39;7.80;99.90
8778;DHT22;4425;50.872;4.712;2023-01-30T09:26:06;7.80;99.90
8778;DHT22;4425;50.872;4.712;2023-01-30T09:28:34;7.80;99.90
8778;DHT22;4425;50.872;4.712;2023-01-30T09:31:01;7.90;99.90
8778;DHT22;4425;50.872;4.712;2023-01-30T09:33:31;7.90;99.90
8778;DHT22;4425;50.872;4.712;2023-01-30T09:35:59;7.90;99.90
8778;DHT22;4425;50.872;4.712;2023-01-30T09:38:26;7.90;99.90
8778;DHT22;4425;50.872;4.712;2023-01-30T09:41:05;7.90;99.90
8778;DHT22;4425;50.872;4.712;2023-01-30T09:43:50;7.90;99.90
8778;DHT22;4425;50.872;4.712;2023-01-30T09:46:29;7.90;99.90
8778;DHT22;4425;50.872;4.712;2023-01-30T09:49:07;7.90;99.90
8778;DHT22;4425;50.872;4.712;2023-01-30T09:51:49;8.00;99.90
8778;DHT22;4425;50.872;4.712;2023-01-30T09:54:20;8.00;99.90
8778;DHT22;4425;50.872;4.712;2023-01-30T09:57:09;8.00;99.90
8778;DHT22;4425;50.872;4.712;2023-01-30T09:59:46;8.00;99.90
8778;DHT22;4425;50.872;4.712;2023-01-30T10:02:39;8.10;99.90
8778;DHT22;4425;50.872;4.712;2023-01-30T10:05:08;8.10;99.90
8778;DHT22;4425;50.872;4.712;2023-01-30T10:08:01;8.10;99.90
8778;DHT22;4425;50.872;4.712;2023-01-30T10:10:44;8.20;99.90
8778;DHT22;4425;50.872;4.712;2023-01-30T10:13:25;8.30;99.90
8778;DHT22;4425;50.872;4.712;2023-01-30T10:15:59;8.20;99.90
8778;DHT22;4425;50.872;4.712;2023-01-30T10:18:54;8.30;99.90
8778;DHT22;4425;50.872;4.712;2023-01-30T10:21:30;8.40;99.90
8778;DHT22;4425;50.872;4.712;2023-01-30T10:24:17;8.40;99.90
8778;DHT22;4425;50.872;4.712;2023-01-30T10:26:46;8.40;99.90
8778;DHT22;4425;50.872;4.712;2023-01-30T10:29:18;8.50;99.90
8778;DHT22;4425;50.872;4.712;2023-01-30T10:31:50;8.40;99.90
8778;DHT22;4425;50.872;4.712;2023-01-30T10:34:22;8.40;99.90
8778;DHT22;4425;50.872;4.712;2023-01-30T10:36:54;8.40;99.90
8778;DHT22;4425;50.872;4.712;2023-01-30T10:39:34;8.50;99.90
8778;DHT22;4425;50.872;4.712;2023-01-30T10:42:08;8.60;99.90
8778;DHT22;4425;50.872;4.712;2023-01-30T10:44:37;8.60;99.90
8778;DHT22;4425;50.872;4.712;2023-01-30T10:47:20;8.60;99.90
8778;DHT22;4425;50.872;4.712;2023-01-30T10:49:53;8.70;99.90
8778;DHT22;4425;50.872;4.712;2023-01-30T10:52:29;8.80;99.90
8778;DHT22;4425;50.872;4.712;2023-01-30T10:55:09;8.90;99.90
8778;DHT22;4425;50.872;4.712;2023-01-30T10:57:49;8.90;99.90
8778;DHT22;4425;50.872;4.712;2023-01-30T11:00:27;9.00;99.90
8778;DHT22;4425;50.872;4.712;2023-01-30T11:03:07;9.10;99.90
8778;DHT22;4425;50.872;4.712;2023-01-30T11:05:41;9.10;99.90
8778;DHT22;4425;50.872;4.712;2023-01-30T11:08:27;9.10;99.90
8778;DHT22;4425;50.872;4.712;2023-01-30T11:10:56;9.10;99.90
8778;DHT22;4425;50.872;4.712;2023-01-30T11:13:27;9.10;99.90
8778;DHT22;4425;50.872;4.712;2023-01-30T11:15:57;9.10;99.90
8778;DHT22;4425;50.872;4.712;2023-01-30T11:18:24;9.00;99.90
8778;DHT22;4425;50.872;4.712;2023-01-30T11:21:03;8.90;99.90
8778;DHT22;4425;50.872;4.712;2023-01-30T11:23:32;9.00;99.90
8778;DHT22;4425;50.872;4.712;2023-01-30T11:26:04;9.00;99.90
8778;DHT22;4425;50.872;4.712;2023-01-30T11:28:39;9.10;99.90
8778;DHT22;4425;50.872;4.712;2023-01-30T11:31:16;9.10;99.90
8778;DHT22;4425;50.872;4.712;2023-01-30T11:33:44;9.10;99.90
8778;DHT22;4425;50.872;4.712;2023-01-30T11:36:24;9.00;99.90
8778;DHT22;4425;50.872;4.712;2023-01-30T11:38:56;9.00;99.90
8778;DHT22;4425;50.872;4.712;2023-01-30T11:41:28;9.10;99.90
8778;DHT22;4425;50.872;4.712;2023-01-30T11:43:59;9.10;99.90
8778;DHT22;4425;50.872;4.712;2023-01-30T11:46:32;9.10;99.90
8778;DHT22;4425;50.872;4.712;2023-01-30T11:49:01;9.10;99.90
8778;DHT22;4425;50.872;4.712;2023-01-30T11:51:32;9.00;99.90
8778;DHT22;4425;50.872;4.712;2023-01-30T11:54:02;8.90;99.90
8778;DHT22;4425;50.872;4.712;2023-01-30T11:56:34;8.90;99.90
8778;DHT22;4425;50.872;4.712;2023-01-30T11:59:05;8.90;99.90
8778;DHT22;4425;50.872;4.712;2023-01-30T12:01:35;8.90;99.90
8778;DHT22;4425;50.872;4.712;2023-01-30T12:04:07;9.00;99.90
8778;DHT22;4425;50.872;4.712;2023-01-30T12:06:37;9.00;99.90
8778;DHT22;4425;50.872;4.712;2023-01-30T12:09:11;8.90;99.90
8778;DHT22;4425;50.872;4.712;2023-01-30T12:11:56;8.90;99.90
8778;DHT22;4425;50.872;4.712;2023-01-30T12:14:36;8.90;99.90
8778;DHT22;4425;50.872;4.712;2023-01-30T12:17:11;9.00;99.90
8778;DHT22;4425;50.872;4.712;2023-01-30T12:19:48;9.00;99.90
8778;DHT22;4425;50.872;4.712;2023-01-30T12:22:25;9.00;99.90
8778;DHT22;4425;50.872;4.712;2023-01-30T12:24:57;9.00;99.90
8778;DHT22;4425;50.872;4.712;2023-01-30T12:27:34;8.90;99.90
8778;DHT22;4425;50.872;4.712;2023-01-30T12:30:07;8.90;99.90
8778;DHT22;4425;50.872;4.712;2023-01-30T12:32:41;8.90;99.90
8778;DHT22;4425;50.872;4.712;2023-01-30T12:35:14;8.90;99.90
8778;DHT22;4425;50.872;4.712;2023-01-30T12:37:54;8.90;99.90
8778;DHT22;4425;50.872;4.712;2023-01-30T12:40:35;8.90;99.90
8778;DHT22;4425;50.872;4.712;2023-01-30T12:43:30;8.80;99.90
8778;DHT22;4425;50.872;4.712;2023-01-30T12:46:12;8.80;99.90
8778;DHT22;4425;50.872;4.712;2023-01-30T12:48:53;8.80;99.90
8778;DHT22;4425;50.872;4.712;2023-01-30T12:51:34;8.90;99.90
8778;DHT22;4425;50.872;4.712;2023-01-30T12:54:09;8.90;99.90
8778;DHT22;4425;50.872;4.712;2023-01-30T12:56:54;8.90;99.90
8778;DHT22;4425;50.872;4.712;2023-01-30T12:59:31;8.80;99.90
8778;DHT22;4425;50.872;4.712;2023-01-30T13:02:17;8.90;99.90
8778;DHT22;4425;50.872;4.712;2023-01-30T13:04:56;8.80;99.90
8778;DHT22;4425;50.872;4.712;2023-01-30T13:07:37;8.90;99.90
8778;DHT22;4425;50.872;4.712;2023-01-30T13:10:17;8.80;99.90
8778;DHT22;4425;50.872;4.712;2023-01-30T13:12:49;8.90;99.90
8778;DHT22;4425;50.872;4.712;2023-01-30T13:15:21;8.80;99.90
8778;DHT22;4425;50.872;4.712;2023-01-30T13:18:06;8.80;99.90
8778;DHT22;4425;50.872;4.712;2023-01-30T13:21:00;8.80;99.90
8778;DHT22;4425;50.872;4.712;2023-01-30T13:23:40;8.70;99.90
8778;DHT22;4425;50.872;4.712;2023-01-30T13:26:13;8.70;99.90
8778;DHT22;4425;50.872;4.712;2023-01-30T13:28:45;8.80;99.90
8778;DHT22;4425;50.872;4.712;2023-01-30T13:31:18;8.80;99.90
8778;DHT22;4425;50.872;4.712;2023-01-30T13:33:50;8.80;99.90
8778;DHT22;4425;50.872;4.712;2023-01-30T13:36:24;8.80;99.90
8778;DHT22;4425;50.872;4.712;2023-01-30T13:38:58;8.70;99.90
8778;DHT22;4425;50.872;4.712;2023-01-30T13:41:32;8.70;99.90
8778;DHT22;4425;50.872;4.712;2023-01-30T13:44:05;8.70;99.90
8778;DHT22;4425;50.872;4.712;2023-01-30T13:46:37;8.70;99.90
8778;DHT22;4425;50.872;4.712;2023-01-30T13:49:11;8.80;99.90
8778;DHT22;4425;50.872;4.712;2023-01-30T13:51:46;8.80;99.90
8778;DHT22;4425;50.872;4.712;2023-01-30T13:57:15;9.00;99.90
8778;DHT22;4425;50.872;4.712;2023-01-30T14:08:51;8.90;99.90
8778;DHT22;4425;50.872;4.712;2023-01-30T14:11:32;8.90;99.90
8778;DHT22;4425;50.872;4.712;2023-01-30T14:14:26;8.90;99.90
8778;DHT22;4425;50.872;4.712;2023-01-30T14:16:56;8.80;99.90
8778;DHT22;4425;50.872;4.712;2023-01-30T14:19:38;8.90;99.90
8778;DHT22;4425;50.872;4.712;2023-01-30T14:22:27;9.00;99.90
8778;DHT22;4425;50.872;4.712;2023-01-30T14:31:54;9.00;99.90
8778;DHT22;4425;50.872;4.712;2023-01-30T14:34:38;9.00;99.90
8778;DHT22;4425;50.872;4.712;2023-01-30T14:37:24;9.10;99.90
8778;DHT22;4425;50.872;4.712;2023-01-30T14:39:53;9.20;99.90
8778;DHT22;4425;50.872;4.712;2023-01-30T14:42:22;9.00;99.90
8778;DHT22;4425;50.872;4.712;2023-01-30T14:45:04;8.90;99.90
8778;DHT22;4425;50.872;4.712;2023-01-30T14:47:40;8.80;99.90
8778;DHT22;4425;50.872;4.712;2023-01-30T14:50:17;8.70;99.90
8778;DHT22;4425;50.872;4.712;2023-01-30T14:52:46;8.70;99.90
8778;DHT22;4425;50.872;4.712;2023-01-30T14:55:19;8.60;99.90
8778;DHT22;4425;50.872;4.712;2023-01-30T14:57:54;8.70;99.90
8778;DHT22;4425;50.872;4.712;2023-01-30T15:00:26;8.70;99.90
8778;DHT22;4425;50.872;4.712;2023-01-30T15:02:57;8.70;99.90
8778;DHT22;4425;50.872;4.712;2023-01-30T15:05:29;8.70;99.90
8778;DHT22;4425;50.872;4.712;2023-01-30T15:08:03;8.60;99.90
8778;DHT22;4425;50.872;4.712;2023-01-30T15:10:43;8.60;99.90
8778;DHT22;4425;50.872;4.712;2023-01-30T15:13:30;8.50;99.90
8778;DHT22;4425;50.872;4.712;2023-01-30T15:16:06;8.50;99.90
8778;DHT22;4425;50.872;4.712;2023-01-30T15:18:57;8.40;99.90
8778;DHT22;4425;50.872;4.712;2023-01-30T15:21:44;8.30;99.90
8778;DHT22;4425;50.872;4.712;2023-01-30T15:24:26;8.20;99.90
8778;DHT22;4425;50.872;4.712;2023-01-30T15:27:05;8.20;99.90
8778;DHT22;4425;50.872;4.712;2023-01-30T15:29:59;8.20;99.90
8778;DHT22;4425;50.872;4.712;2023-01-30T15:32:31;8.20;99.90
8778;DHT22;4425;50.872;4.712;2023-01-30T15:35:01;8.20;99.90
8778;DHT22;4425;50.872;4.712;2023-01-30T15:37:35;8.20;99.90
8778;DHT22;4425;50.872;4.712;2023-01-30T15:40:18;8.20;99.90
8778;DHT22;4425;50.872;4.712;2023-01-30T15:42:46;8.20;99.90
8778;DHT22;4425;50.872;4.712;2023-01-30T15:45:28;8.10;99.90
8778;DHT22;4425;50.872;4.712;2023-01-30T15:51:04;8.10;99.90
8778;DHT22;4425;50.872;4.712;2023-01-30T15:53:34;8.10;99.90
8778;DHT22;4425;50.872;4.712;2023-01-30T15:56:06;8.10;99.90
8778;DHT22;4425;50.872;4.712;2023-01-30T15:58:38;8.10;99.90
8778;DHT22;4425;50.872;4.712;2023-01-30T16:01:08;8.20;99.90
8778;DHT22;4425;50.872;4.712;2023-01-30T16:03:41;8.20;99.90
8778;DHT22;4425;50.872;4.712;2023-01-30T16:06:22;8.20;99.90
8778;DHT22;4425;50.872;4.712;2023-01-30T16:08:58;8.10;99.90
8778;DHT22;4425;50.872;4.712;2023-01-30T16:11:37;8.20;99.90
8778;DHT22;4425;50.872;4.712;2023-01-30T16:14:08;8.10;99.90
8778;DHT22;4425;50.872;4.712;2023-01-30T16:16:38;8.20;99.90
8778;DHT22;4425;50.872;4.712;2023-01-30T16:19:06;8.10;99.90
8778;DHT22;4425;50.872;4.712;2023-01-30T16:21:40;8.10;99.90
8778;DHT22;4425;50.872;4.712;2023-01-30T16:24:15;8.10;99.90
8778;DHT22;4425;50.872;4.712;2023-01-30T16:26:48;8.10;99.90
8778;DHT22;4425;50.872;4.712;2023-01-30T16:29:20;7.90;99.90
8778;DHT22;4425;50.872;4.712;2023-01-30T16:31:49;8.00;99.90
8778;DHT22;4425;50.872;4.712;2023-01-30T16:34:29;8.00;99.90
8778;DHT22;4425;50.872;4.712;2023-01-30T16:37:04;8.00;99.90
8778;DHT22;4425;50.872;4.712;2023-01-30T16:39:34;8.00;99.90
8778;DHT22;4425;50.872;4.712;2023-01-30T16:42:15;8.00;99.90
8778;DHT22;4425;50.872;4.712;2023-01-30T16:44:47;8.00;99.90
8778;DHT22;4425;50.872;4.712;2023-01-30T16:47:21;8.00;99.90
8778;DHT22;4425;50.872;4.712;2023-01-30T16:49:57;7.90;99.90
8778;DHT22;4425;50.872;4.712;2023-01-30T16:52:29;7.90;99.90
8778;DHT22;4425;50.872;4.712;2023-01-30T16:55:00;8.00;99.90
8778;DHT22;4425;50.872;4.712;2023-01-30T16:57:32;8.00;99.90
8778;DHT22;4425;50.872;4.712;2023-01-30T17:00:04;7.90;99.90
8778;DHT22;4425;50.872;4.712;2023-01-30T17:02:34;7.90;99.90
8778;DHT22;4425;50.872;4.712;2023-01-30T17:05:18;8.00;99.90
8778;DHT22;4425;50.872;4.712;2023-01-30T17:07:49;7.90;99.90
8778;DHT22;4425;50.872;4.712;2023-01-30T17:10:49;7.80;99.90
8778;DHT22;4425;50.872;4.712;2023-01-30T17:13:33;7.80;99.90
8778;DHT22;4425;50.872;4.712;2023-01-30T17:16:24;7.80;99.90